Terminal Aerodrome Forecast
Issued by NWS

Home | Current Version | Previous Version | Text Only | Print | Product List | Glossary On
Versions: 1 2 3 4 5 6 7 8 9 10 11
000
FTUS44 KEPZ 030500
TAFLRU
TAF
KLRU 030530Z 0306/0406 26008KT P6SM SCT120 BKN250
     FM031500 27011KT P6SM FEW110
     FM032000 24012G20KT P6SM SCT110
     FM040200 26007KT P6SM FEW150=

USA.gov is the U.S. government's official web portal to all federal, state and local government web resources and services.